createdAt,value
2022-11-25T00:01:58.875Z,97071.94
2022-11-25T00:05:00.426Z,97064.09
2022-11-25T00:08:02.012Z,97062.28
2022-11-25T00:11:05.146Z,97062.03
2022-11-25T00:14:10.153Z,97071.66
2022-11-25T00:17:11.678Z,97081.72
2022-11-25T00:20:13.383Z,97077.28
2022-11-25T00:23:17.321Z,97077.28
2022-11-25T00:26:19.335Z,97070.16
2022-11-25T00:29:20.986Z,97072.06
2022-11-25T00:32:22.599Z,97071.41
2022-11-25T00:35:24.138Z,97068.34
2022-11-25T00:38:25.732Z,97077.44
2022-11-25T00:41:47.206Z,97078.81
2022-11-25T00:44:48.786Z,97080.34
2022-11-25T00:47:50.411Z,97074.84
2022-11-25T00:50:53.025Z,97080.06
2022-11-25T00:53:58.948Z,97076.59
2022-11-25T00:57:00.867Z,97066.56
2022-11-25T01:00:05.936Z,97078.38
2022-11-25T01:03:07.600Z,97070.53
2022-11-25T01:06:11.294Z,97070.53
2022-11-25T01:09:13.785Z,97056.38
2022-11-25T01:12:15.336Z,97066.38
2022-11-25T01:15:16.930Z,97064.44
2022-11-25T01:18:18.635Z,97070.78
2022-11-25T01:21:23.494Z,97062.81
2022-11-25T01:24:26.380Z,97054.97
2022-11-25T01:27:28.559Z,97056.88
2022-11-25T01:30:30.404Z,97053.28
2022-11-25T01:33:32.818Z,97064.28
2022-11-25T01:36:34.796Z,97069.66
2022-11-25T01:39:38.809Z,97055.59
2022-11-25T01:42:46.855Z,97052.97
2022-11-25T01:45:48.484Z,97051.88
2022-11-25T01:48:57.146Z,97060.81
2022-11-25T01:52:01.718Z,97050.78
2022-11-25T01:55:09.798Z,97067.34
2022-11-25T01:58:18.773Z,97061.31
2022-11-25T02:01:21.785Z,97072.34
2022-11-25T02:04:28.111Z,97065.88
2022-11-25T02:07:35.168Z,97066.56
2022-11-25T02:10:36.833Z,97067.50
2022-11-25T02:13:38.487Z,97059.13
2022-11-25T02:16:40.624Z,97061.91
2022-11-25T02:19:58.563Z,97065.31
2022-11-25T02:23:39.630Z,97059.16
2022-11-25T02:26:41.322Z,97065.59
2022-11-25T02:29:44.434Z,97055.69
2022-11-25T02:32:48.243Z,97063.50
2022-11-25T02:35:56.762Z,97062.28
2022-11-25T02:39:00.723Z,97064.72
2022-11-25T02:42:06.514Z,97063.91
2022-11-25T02:45:13.085Z,97065.81
2022-11-25T02:48:14.799Z,97057.00
2022-11-25T02:51:19.109Z,97052.19
2022-11-25T02:54:21.386Z,97041.28
2022-11-25T02:57:23.988Z,97038.91
2022-11-25T03:00:25.951Z,97040.94
2022-11-25T03:03:27.804Z,97043.03
2022-11-25T03:06:30.616Z,97051.56
2022-11-25T03:09:32.118Z,97045.88
2022-11-25T03:12:33.794Z,97050.72
2022-11-25T03:15:36.332Z,97046.00
2022-11-25T03:18:38.268Z,97037.59
2022-11-25T03:21:39.831Z,97034.69
2022-11-25T03:24:42.078Z,97040.22
2022-11-25T03:27:44.408Z,97026.31
2022-11-25T03:30:46.222Z,97033.56
2022-11-25T03:33:47.795Z,97043.50
2022-11-25T03:36:49.719Z,97043.66
2022-11-25T03:39:51.409Z,97042.09
2022-11-25T03:42:53.133Z,97048.41
2022-11-25T03:45:54.802Z,97046.91
2022-11-25T03:48:56.796Z,97039.00
2022-11-25T03:51:58.774Z,97041.38
2022-11-25T03:55:00.764Z,97051.97
2022-11-25T03:58:06.182Z,97034.78
2022-11-25T04:01:08.042Z,97038.19
2022-11-25T04:04:09.638Z,97046.81
2022-11-25T04:07:11.391Z,97043.63
2022-11-25T04:10:13.079Z,97039.88
2022-11-25T04:13:14.826Z,97049.38
2022-11-25T04:16:23.124Z,97042.72
2022-11-25T04:19:26.071Z,97033.44
2022-11-25T04:22:27.683Z,97025.19
2022-11-25T04:25:29.498Z,97035.22
2022-11-25T04:28:31.429Z,97032.47
2022-11-25T04:31:33.125Z,97031.94
2022-11-25T04:34:35.190Z,97024.22
2022-11-25T04:37:37.846Z,97022.34
2022-11-25T04:40:39.454Z,97033.28
2022-11-25T04:43:59.973Z,97032.22
2022-11-25T04:47:03.104Z,97027.09
2022-11-25T04:50:08.318Z,97040.50
2022-11-25T04:53:20.323Z,97044.38
2022-11-25T04:56:22.128Z,97029.94
2022-11-25T04:59:41.687Z,97032.94
2022-11-25T05:02:45.395Z,97045.16
2022-11-25T05:05:54.190Z,97057.97
2022-11-25T05:08:56.014Z,97053.63
2022-11-25T05:11:59.989Z,97060.63
2022-11-25T05:15:01.846Z,97073.59
2022-11-25T05:18:04.028Z,97080.56
2022-11-25T05:21:19.159Z,97085.66
2022-11-25T05:24:20.849Z,97086.34
2022-11-25T05:27:26.856Z,97097.63
2022-11-25T05:30:30.233Z,97098.31
2022-11-25T05:33:32.122Z,97114.03
2022-11-25T05:36:34.511Z,97115.25
2022-11-25T05:39:36.349Z,97117.72
2022-11-25T05:43:10.321Z,97114.53
2022-11-25T05:46:14.229Z,97110.63
2022-11-25T05:49:22.227Z,97119.19
2022-11-25T05:52:25.162Z,97106.72
2022-11-25T05:55:32.115Z,97109.88
2022-11-25T05:58:36.111Z,97107.50
2022-11-25T06:01:38.450Z,97119.94
2022-11-25T06:04:40.048Z,97116.47
2022-11-25T06:07:43.771Z,97121.28
2022-11-25T06:10:45.879Z,97119.63
2022-11-25T06:13:47.548Z,97119.72
2022-11-25T06:16:49.244Z,97119.13
2022-11-25T06:20:13.781Z,97126.69
2022-11-25T06:23:15.439Z,97120.63
2022-11-25T06:26:20.414Z,97117.78
2022-11-25T06:29:23.151Z,97126.47
2022-11-25T06:32:26.066Z,97127.97
2022-11-25T06:35:32.488Z,97130.00
2022-11-25T06:38:36.655Z,97133.97
2022-11-25T06:41:38.138Z,97147.47
2022-11-25T06:44:39.680Z,97146.50
2022-11-25T06:47:41.242Z,97146.94
2022-11-25T06:50:42.831Z,97142.16
2022-11-25T06:53:44.921Z,97152.78
2022-11-25T06:56:51.543Z,97165.16
2022-11-25T06:59:53.148Z,97174.91
2022-11-25T07:02:54.745Z,97171.91
2022-11-25T07:05:59.926Z,97165.88
2022-11-25T07:09:02.245Z,97165.31
2022-11-25T07:12:05.740Z,97182.81
2022-11-25T07:15:07.608Z,97172.88
2022-11-25T07:18:09.231Z,97174.59
2022-11-25T07:21:16.869Z,97193.03
2022-11-25T07:24:18.520Z,97187.47
2022-11-25T07:27:19.992Z,97202.78
2022-11-25T07:33:44.081Z,97203.59
2022-11-25T07:36:47.302Z,97209.28
2022-11-25T07:39:48.914Z,97207.47
2022-11-25T07:42:50.525Z,97208.34
2022-11-25T07:45:52.168Z,97212.50
2022-11-25T07:48:56.053Z,97226.34
2022-11-25T07:52:00.500Z,97243.56
2022-11-25T07:55:02.039Z,97237.44
2022-11-25T07:58:03.719Z,97242.91
2022-11-25T08:01:06.706Z,97251.94
2022-11-25T08:04:14.973Z,97257.75
2022-11-25T08:07:19.949Z,97259.41
2022-11-25T08:10:21.468Z,97259.72
2022-11-25T08:13:23.591Z,97262.03
2022-11-25T08:16:27.778Z,97269.28
2022-11-25T08:19:31.555Z,97269.63
2022-11-25T08:22:36.429Z,97270.94
2022-11-25T08:25:43.030Z,97276.72
2022-11-25T08:28:47.964Z,97285.94
2022-11-25T08:31:49.642Z,97292.88
2022-11-25T08:34:51.163Z,97290.88
2022-11-25T08:37:52.963Z,97285.44
2022-11-25T08:40:55.618Z,97297.94
2022-11-25T08:43:58.881Z,97304.06
2022-11-25T08:47:00.796Z,97295.31
2022-11-25T08:50:05.347Z,97293.34
2022-11-25T08:53:06.959Z,97290.88
2022-11-25T08:56:09.103Z,97294.69
2022-11-25T08:59:10.813Z,97296.50
2022-11-25T09:02:15.269Z,97302.09
2022-11-25T09:05:17.817Z,97309.81
2022-11-25T09:08:26.077Z,97310.03
2022-11-25T09:11:30.070Z,97316.44
2022-11-25T09:14:31.723Z,97328.31
2022-11-25T09:17:35.548Z,97321.53
2022-11-25T09:20:39.457Z,97319.75
2022-11-25T09:23:41.094Z,97326.16
2022-11-25T09:26:43.184Z,97331.13
2022-11-25T09:29:44.747Z,97334.44
2022-11-25T09:32:49.129Z,97325.88
2022-11-25T09:35:50.655Z,97332.09
2022-11-25T09:38:52.825Z,97338.56
2022-11-25T09:42:16.006Z,97328.31
2022-11-25T09:45:44.182Z,97329.31
2022-11-25T09:49:15.070Z,97326.84
2022-11-25T09:52:25.016Z,97321.72
2022-11-25T09:55:34.494Z,97326.16
2022-11-25T09:58:41.708Z,97320.50
2022-11-25T10:01:50.858Z,97307.97
2022-11-25T10:05:00.201Z,97312.56
2022-11-25T10:08:11.719Z,97314.00
2022-11-25T10:11:25.179Z,97314.75
2022-11-25T10:14:38.792Z,97298.13
2022-11-25T10:17:46.199Z,97312.81
2022-11-25T10:20:50.726Z,97320.00
2022-11-25T10:23:52.280Z,97306.84
2022-11-25T10:27:00.264Z,97316.84
2022-11-25T10:30:11.605Z,97320.56
2022-11-25T10:33:18.271Z,97310.94
2022-11-25T10:36:39.425Z,97293.97
2022-11-25T10:39:40.971Z,97307.50
2022-11-25T10:42:42.928Z,97315.22
2022-11-25T10:46:13.833Z,97309.84
2022-11-25T10:49:45.731Z,97306.03
2022-11-25T10:52:55.329Z,97320.00
2022-11-25T10:56:12.274Z,97322.50
2022-11-25T10:59:22.844Z,97321.00
2022-11-25T11:02:28.353Z,97324.19
2022-11-25T11:05:31.402Z,97337.72
2022-11-25T11:08:40.860Z,97335.94
2022-11-25T11:11:49.207Z,97344.88
2022-11-25T11:14:52.003Z,97350.00
2022-11-25T11:17:56.334Z,97341.63
2022-11-25T11:21:00.126Z,97349.56
2022-11-25T11:24:03.351Z,97357.81
2022-11-25T11:27:20.692Z,97361.13
2022-11-25T11:30:26.025Z,97363.59
2022-11-25T11:33:34.133Z,97360.47
2022-11-25T11:36:52.453Z,97363.91
2022-11-25T11:40:12.252Z,97364.34
2022-11-25T11:43:36.877Z,97374.59
2022-11-25T11:47:09.030Z,97365.56
2022-11-25T11:50:25.631Z,97374.97
2022-11-25T11:54:07.007Z,97377.63
2022-11-25T11:57:23.838Z,97370.03
2022-11-25T12:00:59.319Z,97369.53
2022-11-25T12:04:09.150Z,97373.34
2022-11-25T12:07:46.474Z,97379.78
2022-11-25T12:10:56.271Z,97384.06
2022-11-25T12:14:35.324Z,97389.66
2022-11-25T12:17:44.149Z,97384.34
2022-11-25T12:20:54.504Z,97382.38
2022-11-25T12:24:06.204Z,97392.06
2022-11-25T12:27:12.852Z,97393.06
2022-11-25T12:30:22.872Z,97403.97
2022-11-25T12:33:35.656Z,97401.47
2022-11-25T12:36:40.098Z,97412.88
2022-11-25T12:39:50.964Z,97417.00
2022-11-25T12:42:56.411Z,97419.81
2022-11-25T12:46:12.023Z,97419.97
2022-11-25T12:49:31.972Z,97431.31
2022-11-25T12:52:58.996Z,97437.25
2022-11-25T12:56:05.418Z,97435.97
2022-11-25T12:59:40.542Z,97436.31
2022-11-25T13:02:48.116Z,97436.28
2022-11-25T13:05:49.665Z,97436.41
2022-11-25T13:09:03.932Z,97427.66
2022-11-25T13:12:29.695Z,97434.44
2022-11-25T13:15:38.093Z,97436.97
2022-11-25T13:18:44.261Z,97441.28
2022-11-25T13:22:00.584Z,97444.25
2022-11-25T13:25:02.693Z,97451.34
2022-11-25T13:28:27.256Z,97466.38
2022-11-25T13:31:33.965Z,97473.47
2022-11-25T13:34:37.062Z,97477.44
2022-11-25T13:37:40.762Z,97472.97
2022-11-25T13:40:42.361Z,97474.31
2022-11-25T13:44:04.886Z,97490.78
2022-11-25T13:47:25.993Z,97482.72
2022-11-25T13:50:48.416Z,97489.66
2022-11-25T13:53:57.884Z,97498.38
2022-11-25T13:57:17.090Z,97503.66
2022-11-25T14:00:18.641Z,97511.59
2022-11-25T14:03:20.210Z,97509.78
2022-11-25T14:06:28.320Z,97517.84
2022-11-25T14:09:35.942Z,97517.19
2022-11-25T14:12:50.718Z,97519.34
2022-11-25T14:15:52.272Z,97524.47
2022-11-25T14:19:35.221Z,97525.78
2022-11-25T14:22:46.148Z,97527.78
2022-11-25T14:26:06.104Z,97538.97
2022-11-25T14:29:25.171Z,97532.38
2022-11-25T14:32:37.586Z,97534.19
2022-11-25T14:35:48.026Z,97535.84
2022-11-25T14:38:55.346Z,97546.06
2022-11-25T14:42:19.414Z,97550.00
2022-11-25T14:45:29.474Z,97546.03
2022-11-25T14:48:33.712Z,97551.47
2022-11-25T14:51:39.919Z,97565.97
2022-11-25T14:54:55.378Z,97562.63
2022-11-25T14:57:57.336Z,97576.34
2022-11-25T15:01:08.700Z,97585.72
2022-11-25T15:04:25.393Z,97589.81
2022-11-25T15:07:31.497Z,97601.16
2022-11-25T15:10:51.071Z,97610.25
2022-11-25T15:13:58.673Z,97611.69
2022-11-25T15:17:06.751Z,97613.13
2022-11-25T15:20:15.448Z,97624.78
2022-11-25T15:23:24.278Z,97643.91
2022-11-25T15:26:28.519Z,97633.44
2022-11-25T15:29:39.952Z,97638.66
2022-11-25T15:32:41.615Z,97647.03
2022-11-25T15:35:43.196Z,97655.56
2022-11-25T15:38:46.499Z,97660.59
2022-11-25T15:42:07.446Z,97667.47
2022-11-25T15:45:20.197Z,97672.00
2022-11-25T15:48:38.065Z,97678.88
2022-11-25T15:51:49.340Z,97687.22
2022-11-25T15:54:54.446Z,97682.56
2022-11-25T15:58:19.279Z,97687.28
2022-11-25T16:01:23.384Z,97692.25
2022-11-25T16:04:25.677Z,97696.63
2022-11-25T16:07:27.501Z,97691.22
2022-11-25T16:10:50.481Z,97693.84
2022-11-25T16:13:53.264Z,97692.56
2022-11-25T16:17:03.809Z,97689.69
2022-11-25T16:20:06.067Z,97702.03
2022-11-25T16:23:30.563Z,97708.59
2022-11-25T16:27:01.567Z,97707.59
2022-11-25T16:30:10.199Z,97704.75
2022-11-25T16:33:11.795Z,97701.44
2022-11-25T16:36:16.259Z,97704.34
2022-11-25T16:39:23.499Z,97713.91
2022-11-25T16:42:25.918Z,97721.81
2022-11-25T16:45:28.572Z,97723.59
2022-11-25T16:48:30.184Z,97717.50
2022-11-25T16:51:31.777Z,97718.94
2022-11-25T16:54:34.017Z,97736.22
2022-11-25T16:57:36.737Z,97737.09
2022-11-25T17:00:38.252Z,97749.25
2022-11-25T17:03:40.019Z,97751.41
2022-11-25T17:06:42.270Z,97747.25
2022-11-25T17:09:44.867Z,97753.16
2022-11-25T17:12:47.608Z,97761.59
2022-11-25T17:15:49.875Z,97763.94
2022-11-25T17:18:54.036Z,97767.06
2022-11-25T17:21:55.623Z,97766.56
2022-11-25T17:24:58.737Z,97775.97
2022-11-25T17:28:00.664Z,97783.88
2022-11-25T17:31:03.291Z,97792.31
2022-11-25T17:34:05.077Z,97793.59
2022-11-25T17:37:18.439Z,97805.06
2022-11-25T17:40:20.103Z,97816.13
2022-11-25T17:43:22.072Z,97814.50
2022-11-25T17:46:28.672Z,97808.09
2022-11-25T17:49:30.206Z,97815.00
2022-11-25T17:57:21.402Z,97825.50
2022-11-25T18:00:23.186Z,97827.16
2022-11-25T18:03:25.096Z,97839.50
2022-11-25T18:06:26.734Z,97844.06
2022-11-25T18:09:28.185Z,97853.94
2022-11-25T18:12:30.813Z,97855.59
2022-11-25T18:15:34.051Z,97865.69
2022-11-25T18:18:35.586Z,97855.34
2022-11-25T18:21:37.170Z,97858.78
2022-11-25T18:24:38.926Z,97866.41
2022-11-25T18:27:40.993Z,97876.75
2022-11-25T18:30:43.006Z,97880.13
2022-11-25T18:33:44.726Z,97877.63
2022-11-25T18:36:46.364Z,97887.75
2022-11-25T18:39:48.051Z,97887.59
2022-11-25T18:42:54.871Z,97882.91
2022-11-25T18:45:57.245Z,97883.06
2022-11-25T18:48:58.987Z,97887.09
2022-11-25T18:52:00.641Z,97891.28
2022-11-25T18:55:02.240Z,97900.69
2022-11-25T18:58:10.543Z,97906.09
2022-11-25T19:01:14.276Z,97909.84
2022-11-25T19:04:16.668Z,97908.88
2022-11-25T19:07:18.426Z,97920.91
2022-11-25T19:10:22.576Z,97924.22
2022-11-25T19:13:31.678Z,97929.75
2022-11-25T19:16:33.885Z,97932.91
2022-11-25T19:19:37.986Z,97938.44
2022-11-25T19:22:45.884Z,97948.41
2022-11-25T19:25:49.896Z,97961.84
2022-11-25T19:28:58.708Z,97963.22
2022-11-25T19:32:05.743Z,97955.47
2022-11-25T19:35:08.515Z,97965.72
2022-11-25T19:38:25.934Z,97980.25
2022-11-25T19:41:28.034Z,97979.84
2022-11-25T19:44:29.885Z,97995.09
2022-11-25T19:47:31.596Z,97990.50
2022-11-25T19:50:35.676Z,97995.63
2022-11-25T19:53:37.390Z,97997.56
2022-11-25T19:56:41.340Z,98000.91
2022-11-25T19:59:44.159Z,98010.19
2022-11-25T20:02:49.043Z,98017.81
2022-11-25T20:05:53.351Z,98031.34
2022-11-25T20:08:57.401Z,98034.97
2022-11-25T20:12:17.994Z,98034.97
2022-11-25T20:15:25.721Z,98044.91
2022-11-25T20:18:27.688Z,98047.38
2022-11-25T20:21:37.855Z,98046.53
2022-11-25T20:24:39.618Z,98047.84
2022-11-25T20:27:41.753Z,98052.69
2022-11-25T20:30:44.359Z,98058.91
2022-11-25T20:33:47.676Z,98064.03
2022-11-25T20:36:49.227Z,98066.38
2022-11-25T20:39:57.770Z,98076.25
2022-11-25T20:42:59.725Z,98077.63
2022-11-25T20:46:04.694Z,98079.00
2022-11-25T20:49:20.921Z,98080.94
2022-11-25T20:52:31.267Z,98089.09
2022-11-25T20:55:33.210Z,98099.94
2022-11-25T20:58:37.646Z,98092.63
2022-11-25T21:01:39.326Z,98096.06
2022-11-25T21:04:41.123Z,98096.75
2022-11-25T21:07:44.207Z,98101.88
2022-11-25T21:10:47.205Z,98100.09
2022-11-25T21:13:49.579Z,98103.00
2022-11-25T21:16:51.273Z,98103.81
2022-11-25T21:19:53.005Z,98103.56
2022-11-25T21:22:57.824Z,98099.25
2022-11-25T21:26:20.936Z,98108.53
2022-11-25T21:29:22.953Z,98107.03
2022-11-25T21:32:27.544Z,98113.38
2022-11-25T21:35:32.115Z,98120.13
2022-11-25T21:38:33.906Z,98125.78
2022-11-25T21:41:41.802Z,98129.38
2022-11-25T21:44:45.011Z,98128.69
2022-11-25T21:47:46.535Z,98131.69
2022-11-25T21:50:48.762Z,98132.34
2022-11-25T21:53:51.542Z,98138.97
2022-11-25T21:56:53.454Z,98140.91
2022-11-25T21:59:55.636Z,98146.97
2022-11-25T22:02:57.298Z,98150.19
2022-11-25T22:05:58.997Z,98149.06
2022-11-25T22:09:00.542Z,98147.84
2022-11-25T22:12:02.525Z,98151.03
2022-11-25T22:15:04.549Z,98140.69
2022-11-25T22:18:13.598Z,98151.63
2022-11-25T22:21:15.265Z,98143.88
2022-11-25T22:24:18.592Z,98145.50
2022-11-25T22:27:23.294Z,98149.16
2022-11-25T22:30:24.916Z,98147.91
2022-11-25T22:33:31.327Z,98154.88
2022-11-25T22:36:35.879Z,98152.31
2022-11-25T22:39:37.459Z,98148.47
2022-11-25T22:42:44.655Z,98162.31
2022-11-25T22:45:46.847Z,98167.06
2022-11-25T22:48:48.503Z,98163.94
2022-11-25T22:51:50.103Z,98166.78
2022-11-25T22:54:51.910Z,98164.88
2022-11-25T22:57:55.885Z,98158.03
2022-11-25T23:00:57.618Z,98168.22
2022-11-25T23:03:59.248Z,98164.44
2022-11-25T23:07:00.895Z,98166.16
2022-11-25T23:10:02.572Z,98161.31
2022-11-25T23:13:04.185Z,98172.00
2022-11-25T23:16:06.063Z,98167.75
2022-11-25T23:19:18.509Z,98173.16
2022-11-25T23:22:20.324Z,98169.72
2022-11-25T23:25:22.858Z,98174.25
2022-11-25T23:28:25.194Z,98177.38
2022-11-25T23:31:26.811Z,98183.56
2022-11-25T23:34:31.020Z,98172.00
2022-11-25T23:37:32.791Z,98172.13
2022-11-25T23:40:34.649Z,98173.72
2022-11-25T23:43:36.320Z,98181.69
2022-11-25T23:46:38.227Z,98185.72
2022-11-25T23:49:44.440Z,98189.78
2022-11-25T23:52:46.171Z,98191.09
2022-11-25T23:55:48.294Z,98195.13
2022-11-25T23:58:50.575Z,98197.16
